Time;durP1;ratioP1;P1;durP2;ratioP2;P2;SDS_P1;SDS_P2;PMS_P1;PMS_P2;Temp;Humidity;BMP_temperature;BMP_pressure;BME280_temperature;BME280_humidity;BME280_pressure;Samples;Min_cycle;Max_cycle;Signal;HPM_P1;HPM_P2
2023/06/05 00:00:17;;;;;;;57.37;2.60;;;;;;;;;;5054171;28;20444;-67
2023/06/05 00:02:44;;;;;;;57.40;2.70;;;;;;;;;;5054551;28;20475;-67
2023/06/05 00:05:13;;;;;;;57.40;2.30;;;;;;;;;;5054778;28;20444;-67
2023/06/05 00:07:40;;;;;;;57.47;2.40;;;;;;;;;;5054418;28;20941;-67
2023/06/05 00:10:07;;;;;;;58.30;2.93;;;;;;;;;;5054566;28;20440;-67
2023/06/05 00:12:34;;;;;;;57.37;2.30;;;;;;;;;;5054539;28;20464;-67
2023/06/05 00:15:01;;;;;;;57.33;2.40;;;;;;;;;;5054452;28;20463;-67
2023/06/05 00:17:30;;;;;;;57.80;2.80;;;;;;;;;;5054473;28;20507;-67
2023/06/05 00:19:58;;;;;;;57.90;2.70;;;;;;;;;;5053990;28;20637;-67
2023/06/05 00:22:27;;;;;;;57.50;2.50;;;;;;;;;;5054408;28;20472;-67
2023/06/05 00:24:54;;;;;;;57.70;2.53;;;;;;;;;;5054551;28;20447;-67
2023/06/05 00:27:21;;;;;;;57.70;2.67;;;;;;;;;;5054118;28;20458;-67
2023/06/05 00:29:48;;;;;;;57.57;2.50;;;;;;;;;;5053483;28;20814;-67
2023/06/05 00:32:15;;;;;;;57.33;2.50;;;;;;;;;;5053973;28;20471;-67
2023/06/05 00:34:42;;;;;;;57.70;2.60;;;;;;;;;;5054187;28;20492;-67
2023/06/05 00:37:11;;;;;;;57.27;2.60;;;;;;;;;;5053887;28;20469;-67
2023/06/05 00:39:39;;;;;;;57.37;2.40;;;;;;;;;;5053350;28;20460;-67
2023/06/05 00:42:07;;;;;;;57.37;2.40;;;;;;;;;;5054124;28;20468;-67
2023/06/05 00:44:35;;;;;;;57.70;3.00;;;;;;;;;;5053791;28;20940;-67
2023/06/05 00:47:02;;;;;;;57.77;2.70;;;;;;;;;;5054039;28;20550;-67
2023/06/05 00:49:30;;;;;;;57.67;3.20;;;;;;;;;;5053355;28;20455;-67
2023/06/05 00:51:58;;;;;;;57.33;2.60;;;;;;;;;;5053905;28;20490;-67
2023/06/05 00:54:25;;;;;;;57.63;2.90;;;;;;;;;;5053932;28;20480;-67
2023/06/05 00:56:53;;;;;;;57.80;2.90;;;;;;;;;;5053443;28;20956;-67
2023/06/05 00:59:20;;;;;;;57.27;2.50;;;;;;;;;;5053059;28;20452;-67
2023/06/05 01:01:48;;;;;;;57.70;2.90;;;;;;;;;;5053668;28;20464;-67
2023/06/05 01:04:15;;;;;;;57.47;2.70;;;;;;;;;;5053595;28;20801;-67
2023/06/05 01:06:43;;;;;;;57.40;2.77;;;;;;;;;;5053728;28;20459;-67
2023/06/05 01:09:13;;;;;;;57.77;2.80;;;;;;;;;;5053054;28;20448;-67
2023/06/05 01:11:42;;;;;;;57.47;2.53;;;;;;;;;;5053467;28;20445;-67
2023/06/05 01:14:17;;;;;;;57.67;2.80;;;;;;;;;;5053229;28;20488;-67
2023/06/05 01:16:46;;;;;;;59.67;3.70;;;;;;;;;;5053287;28;20444;-67
2023/06/05 01:19:15;;;;;;;57.23;2.50;;;;;;;;;;5050895;28;20448;-67
2023/06/05 01:21:42;;;;;;;57.23;2.20;;;;;;;;;;5053122;28;20479;-67
2023/06/05 01:24:13;;;;;;;57.90;3.00;;;;;;;;;;5053307;28;20455;-67
2023/06/05 01:27:00;;;;;;;57.53;2.70;;;;;;;;;;5053152;28;20804;-66
2023/06/05 01:29:30;;;;;;;57.33;2.60;;;;;;;;;;5050344;28;20499;-67
2023/06/05 01:31:59;;;;;;;57.50;2.40;;;;;;;;;;5052976;28;20480;-67
2023/06/05 01:34:27;;;;;;;57.57;2.80;;;;;;;;;;5052811;28;21039;-67
2023/06/05 01:36:55;;;;;;;57.07;2.23;;;;;;;;;;5052898;28;20452;-67
2023/06/05 01:39:24;;;;;;;57.40;2.37;;;;;;;;;;5052098;28;20448;-67
2023/06/05 01:41:52;;;;;;;57.67;2.50;;;;;;;;;;5053017;28;20468;-67
2023/06/05 01:44:19;;;;;;;57.57;2.80;;;;;;;;;;5053109;28;20452;-67
2023/06/05 01:46:47;;;;;;;57.40;2.50;;;;;;;;;;5052701;28;20452;-67
2023/06/05 01:49:14;;;;;;;57.40;2.50;;;;;;;;;;5051989;28;20454;-67
2023/06/05 01:51:41;;;;;;;57.60;2.40;;;;;;;;;;5052552;28;20452;-67
2023/06/05 01:54:08;;;;;;;57.40;2.40;;;;;;;;;;5052739;28;20483;-67
2023/06/05 01:56:37;;;;;;;57.37;2.60;;;;;;;;;;5052322;28;20979;-67
2023/06/05 01:59:06;;;;;;;57.53;2.60;;;;;;;;;;5052053;28;20510;-67
2023/06/05 02:01:34;;;;;;;57.40;2.40;;;;;;;;;;5051967;28;20455;-67
2023/06/05 02:04:04;;;;;;;57.80;2.70;;;;;;;;;;5052429;28;20456;-67
2023/06/05 02:06:35;;;;;;;57.40;2.13;;;;;;;;;;5052229;28;20499;-67
2023/06/05 02:09:02;;;;;;;57.37;2.30;;;;;;;;;;5051838;28;20452;-66
2023/06/05 02:11:29;;;;;;;57.37;2.60;;;;;;;;;;5052477;28;20453;-67
2023/06/05 02:13:59;;;;;;;57.27;2.57;;;;;;;;;;5052282;28;20480;-67
2023/06/05 02:16:26;;;;;;;57.33;2.40;;;;;;;;;;5052068;28;20464;-67
2023/06/05 02:18:56;;;;;;;57.37;2.40;;;;;;;;;;5051335;28;20448;-67
2023/06/05 02:21:24;;;;;;;57.57;2.50;;;;;;;;;;5052493;28;20875;-67
2023/06/05 02:23:51;;;;;;;57.20;2.47;;;;;;;;;;5052022;28;20444;-67
2023/06/05 02:26:20;;;;;;;57.47;2.70;;;;;;;;;;5051897;28;20460;-67
2023/06/05 02:28:47;;;;;;;57.37;2.60;;;;;;;;;;5051523;28;20782;-67
2023/06/05 02:31:16;;;;;;;57.47;2.43;;;;;;;;;;5051905;28;20825;-67
2023/06/05 02:33:43;;;;;;;57.37;2.40;;;;;;;;;;5051510;28;20984;-67
2023/06/05 02:36:10;;;;;;;57.33;2.57;;;;;;;;;;5051983;28;20452;-67
2023/06/05 02:38:38;;;;;;;57.70;2.77;;;;;;;;;;5051062;28;20456;-67
2023/06/05 02:41:06;;;;;;;57.27;2.43;;;;;;;;;;5051969;28;20460;-67
2023/06/05 02:43:33;;;;;;;57.80;2.80;;;;;;;;;;5051637;28;20472;-67
2023/06/05 02:46:00;;;;;;;57.40;2.40;;;;;;;;;;5051472;28;20493;-67
2023/06/05 02:48:28;;;;;;;57.37;2.70;;;;;;;;;;5051697;28;20452;-67
2023/06/05 02:50:55;;;;;;;58.73;3.00;;;;;;;;;;5051064;28;20462;-67
2023/06/05 02:53:23;;;;;;;57.50;2.60;;;;;;;;;;5051410;28;20468;-67
2023/06/05 02:55:50;;;;;;;57.90;3.10;;;;;;;;;;5051340;28;20464;-67
2023/06/05 02:58:17;;;;;;;57.50;2.50;;;;;;;;;;5051432;28;20979;-67
2023/06/05 03:00:45;;;;;;;57.47;2.60;;;;;;;;;;5050616;28;20909;-67
2023/06/05 03:03:12;;;;;;;57.67;2.80;;;;;;;;;;5051485;28;20521;-66
2023/06/05 03:05:42;;;;;;;57.47;2.53;;;;;;;;;;5051392;28;20841;-67
2023/06/05 03:08:10;;;;;;;57.43;2.67;;;;;;;;;;5051559;28;20456;-66
2023/06/05 03:10:37;;;;;;;57.53;2.63;;;;;;;;;;5050813;28;20456;-67
2023/06/05 03:13:04;;;;;;;57.87;3.30;;;;;;;;;;5050676;28;20523;-67
2023/06/05 03:15:32;;;;;;;57.63;3.13;;;;;;;;;;5050822;28;20500;-66
2023/06/05 03:17:59;;;;;;;57.50;2.70;;;;;;;;;;5051332;28;20509;-66
2023/06/05 03:20:26;;;;;;;57.27;2.40;;;;;;;;;;5050467;28;20937;-67
2023/06/05 03:22:56;;;;;;;57.80;3.37;;;;;;;;;;5051397;28;20467;-67
2023/06/05 03:25:23;;;;;;;57.27;2.90;;;;;;;;;;5051528;28;20432;-67
2023/06/05 03:27:51;;;;;;;57.57;2.53;;;;;;;;;;5050981;28;20448;-67
2023/06/05 03:30:18;;;;;;;57.43;2.90;;;;;;;;;;5050589;28;20452;-66
2023/06/05 03:32:46;;;;;;;57.37;2.50;;;;;;;;;;5051203;28;20511;-67
2023/06/05 03:35:13;;;;;;;60.67;3.10;;;;;;;;;;5051159;28;20476;-67
2023/06/05 03:37:40;;;;;;;57.43;2.70;;;;;;;;;;5050891;28;20467;-66
2023/06/05 03:40:09;;;;;;;57.90;3.33;;;;;;;;;;5050192;28;20459;-66
2023/06/05 03:42:36;;;;;;;58.07;2.60;;;;;;;;;;5050825;28;21020;-66
2023/06/05 03:45:04;;;;;;;57.60;2.70;;;;;;;;;;5051238;28;20444;-66
2023/06/05 03:47:34;;;;;;;60.17;4.20;;;;;;;;;;5050723;28;20452;-66
2023/06/05 03:50:02;;;;;;;57.60;2.80;;;;;;;;;;5050634;28;20492;-66
2023/06/05 03:52:29;;;;;;;57.30;2.50;;;;;;;;;;5050810;28;20475;-66
2023/06/05 03:54:57;;;;;;;57.17;2.60;;;;;;;;;;5050894;28;20487;-66
2023/06/05 03:57:25;;;;;;;57.27;2.27;;;;;;;;;;5050599;28;20507;-66
2023/06/05 03:59:52;;;;;;;57.87;2.83;;;;;;;;;;5050143;28;20453;-66
2023/06/05 04:02:20;;;;;;;58.63;3.13;;;;;;;;;;5050638;28;20985;-66
2023/06/05 04:04:47;;;;;;;57.80;3.07;;;;;;;;;;5050841;28;20455;-66
2023/06/05 04:07:14;;;;;;;57.47;2.60;;;;;;;;;;5050844;28;20509;-66
2023/06/05 04:09:41;;;;;;;57.87;3.33;;;;;;;;;;5050216;28;20467;-66
2023/06/05 04:12:10;;;;;;;57.17;2.40;;;;;;;;;;5050561;28;21002;-66
2023/06/05 04:14:38;;;;;;;57.43;2.70;;;;;;;;;;5050757;28;20858;-66
2023/06/05 04:17:05;;;;;;;57.40;2.87;;;;;;;;;;5050686;28;20456;-66
2023/06/05 04:19:32;;;;;;;57.80;3.20;;;;;;;;;;5049832;28;20459;-66
2023/06/05 04:22:00;;;;;;;57.33;2.43;;;;;;;;;;5050340;28;20558;-66
2023/06/05 04:24:29;;;;;;;57.50;2.40;;;;;;;;;;5051002;28;20456;-66
2023/06/05 04:26:56;;;;;;;57.60;2.80;;;;;;;;;;5054475;28;20511;-66
2023/06/05 04:32:27;;;;;;;57.90;2.70;;;;;;;;;;5051818;28;20558;-67
2023/06/05 04:34:54;;;;;;;57.50;2.70;;;;;;;;;;5054250;28;20841;-66
2023/06/05 04:37:22;;;;;;;57.20;2.40;;;;;;;;;;5053985;28;20936;-66
2023/06/05 04:39:49;;;;;;;57.80;3.37;;;;;;;;;;5053597;28;20451;-66
2023/06/05 04:42:17;;;;;;;57.47;2.50;;;;;;;;;;5054113;28;20463;-66
2023/06/05 04:44:44;;;;;;;57.90;2.97;;;;;;;;;;5053839;28;20551;-66
2023/06/05 04:47:11;;;;;;;57.80;3.00;;;;;;;;;;5053995;28;20456;-66
2023/06/05 04:49:40;;;;;;;57.07;2.60;;;;;;;;;;5053265;28;20458;-66
2023/06/05 04:52:07;;;;;;;57.27;2.47;;;;;;;;;;5053839;28;20468;-66
2023/06/05 04:54:34;;;;;;;57.30;2.57;;;;;;;;;;5053941;28;20490;-66
2023/06/05 04:57:01;;;;;;;57.17;2.53;;;;;;;;;;5053564;28;20517;-66
2023/06/05 04:59:28;;;;;;;57.10;3.13;;;;;;;;;;5053145;28;20459;-66
2023/06/05 05:01:55;;;;;;;57.70;3.27;;;;;;;;;;5053861;28;20464;-66
2023/06/05 05:04:23;;;;;;;57.40;2.97;;;;;;;;;;5053763;28;20452;-66
2023/06/05 05:06:51;;;;;;;57.07;2.37;;;;;;;;;;5053458;28;20467;-66
2023/06/05 05:09:18;;;;;;;57.33;3.03;;;;;;;;;;5052674;28;20456;-66
2023/06/05 05:11:45;;;;;;;57.10;2.40;;;;;;;;;;5053293;28;20473;-67
2023/06/05 05:14:12;;;;;;;57.13;2.50;;;;;;;;;;5053583;28;20459;-67
2023/06/05 05:16:42;;;;;;;57.70;2.80;;;;;;;;;;5053174;28;20470;-67
2023/06/05 05:19:09;;;;;;;57.17;2.60;;;;;;;;;;5052784;28;20459;-67
2023/06/05 05:21:37;;;;;;;57.30;2.50;;;;;;;;;;5053187;28;20458;-66
2023/06/05 05:24:07;;;;;;;57.27;2.70;;;;;;;;;;5053297;28;20455;-67
2023/06/05 05:26:34;;;;;;;57.17;2.40;;;;;;;;;;5053283;28;20483;-67
2023/06/05 05:29:01;;;;;;;57.07;2.40;;;;;;;;;;5052627;28;20456;-67
2023/06/05 05:31:29;;;;;;;57.03;2.30;;;;;;;;;;5053307;28;20484;-67
2023/06/05 05:33:56;;;;;;;57.10;2.53;;;;;;;;;;5053239;28;20535;-67
2023/06/05 05:36:23;;;;;;;57.50;2.87;;;;;;;;;;5051781;28;20575;-67
2023/06/05 05:38:51;;;;;;;68.13;2.63;;;;;;;;;;5052138;28;20444;-67
2023/06/05 05:41:20;;;;;;;57.60;2.80;;;;;;;;;;5053158;28;20456;-67
2023/06/05 05:43:47;;;;;;;57.03;2.40;;;;;;;;;;5052774;28;20491;-67
2023/06/05 05:46:15;;;;;;;58.97;3.27;;;;;;;;;;5052720;28;20463;-67
2023/06/05 05:48:42;;;;;;;57.17;2.33;;;;;;;;;;5052433;28;20448;-67
2023/06/05 05:51:09;;;;;;;57.47;3.00;;;;;;;;;;5052627;28;20452;-67
2023/06/05 05:53:36;;;;;;;57.30;2.57;;;;;;;;;;5052814;28;20595;-67
2023/06/05 05:56:04;;;;;;;57.20;2.63;;;;;;;;;;5052630;28;20892;-67
2023/06/05 05:58:33;;;;;;;57.00;2.50;;;;;;;;;;5052300;28;20456;-67
2023/06/05 06:01:00;;;;;;;57.20;2.40;;;;;;;;;;5052834;28;20455;-67
2023/06/05 06:03:28;;;;;;;56.93;2.30;;;;;;;;;;5052722;28;20520;-67
2023/06/05 06:05:56;;;;;;;57.27;2.80;;;;;;;;;;5052296;28;20452;-67
2023/06/05 06:08:24;;;;;;;57.30;2.43;;;;;;;;;;5052187;28;20448;-67
2023/06/05 06:10:51;;;;;;;57.40;2.70;;;;;;;;;;5051617;28;20998;-67
2023/06/05 06:13:19;;;;;;;57.17;2.63;;;;;;;;;;5052261;28;20468;-67
2023/06/05 06:15:48;;;;;;;57.30;2.30;;;;;;;;;;5052194;28;20476;-67
2023/06/05 06:18:15;;;;;;;57.17;2.30;;;;;;;;;;5052532;28;20811;-67
2023/06/05 06:20:42;;;;;;;57.03;2.20;;;;;;;;;;5051823;28;20500;-67
2023/06/05 06:23:09;;;;;;;56.73;2.40;;;;;;;;;;5052271;28;20887;-67
2023/06/05 06:25:37;;;;;;;56.83;2.10;;;;;;;;;;5052058;28;20452;-67
2023/06/05 06:28:04;;;;;;;58.47;2.90;;;;;;;;;;5052010;28;20452;-67
2023/06/05 06:30:32;;;;;;;57.23;2.50;;;;;;;;;;5051340;28;20960;-67
2023/06/05 06:33:00;;;;;;;57.23;2.60;;;;;;;;;;5051617;28;20465;-67
2023/06/05 06:35:27;;;;;;;57.23;2.40;;;;;;;;;;5051884;28;20484;-67
2023/06/05 06:37:56;;;;;;;57.17;2.67;;;;;;;;;;5051988;28;20820;-67
2023/06/05 06:40:23;;;;;;;57.27;2.43;;;;;;;;;;5050990;28;20546;-67
2023/06/05 06:42:51;;;;;;;57.07;2.20;;;;;;;;;;5051510;28;20530;-67
2023/06/05 06:45:18;;;;;;;57.57;3.17;;;;;;;;;;5051847;28;20980;-67
2023/06/05 06:47:45;;;;;;;57.10;2.30;;;;;;;;;;5051787;28;20445;-67
2023/06/05 06:50:14;;;;;;;57.30;2.30;;;;;;;;;;5051151;28;20455;-67
2023/06/05 06:52:41;;;;;;;57.07;2.30;;;;;;;;;;5051627;28;20495;-67
2023/06/05 06:55:09;;;;;;;57.60;2.93;;;;;;;;;;5051571;28;20487;-67
2023/06/05 06:57:36;;;;;;;57.50;2.80;;;;;;;;;;5051248;28;20464;-67
2023/06/05 07:00:07;;;;;;;57.20;2.57;;;;;;;;;;5050796;28;20456;-67
2023/06/05 07:02:34;;;;;;;56.97;2.30;;;;;;;;;;5051504;28;20459;-67
2023/06/05 07:05:02;;;;;;;57.40;2.37;;;;;;;;;;5051562;28;20794;-67
2023/06/05 07:07:30;;;;;;;57.13;2.60;;;;;;;;;;5051346;28;20448;-67
2023/06/05 07:09:58;;;;;;;57.50;2.90;;;;;;;;;;5050381;28;20456;-67
2023/06/05 07:12:25;;;;;;;57.57;2.90;;;;;;;;;;5051189;28;20479;-67
2023/06/05 07:14:52;;;;;;;57.33;2.63;;;;;;;;;;5051072;28;20456;-67
2023/06/05 07:17:19;;;;;;;57.53;2.87;;;;;;;;;;5051116;28;20562;-67
2023/06/05 07:19:46;;;;;;;57.37;2.60;;;;;;;;;;5050528;28;20463;-67
2023/06/05 07:22:13;;;;;;;57.13;2.30;;;;;;;;;;5051033;28;20476;-67
2023/06/05 07:24:42;;;;;;;57.37;2.63;;;;;;;;;;5051238;28;20448;-67
2023/06/05 07:27:09;;;;;;;57.27;2.97;;;;;;;;;;5050743;28;20534;-67
2023/06/05 07:29:36;;;;;;;56.97;2.40;;;;;;;;;;5050513;28;20452;-67
2023/06/05 07:32:06;;;;;;;58.30;2.87;;;;;;;;;;5051235;28;20850;-67
2023/06/05 07:34:34;;;;;;;56.87;2.20;;;;;;;;;;5050893;28;20475;-67
2023/06/05 07:37:01;;;;;;;57.07;2.10;;;;;;;;;;5050868;28;20906;-67
2023/06/05 07:39:29;;;;;;;57.17;2.13;;;;;;;;;;5050075;28;20463;-67
2023/06/05 07:41:57;;;;;;;57.20;2.17;;;;;;;;;;5051006;28;20860;-67
2023/06/05 07:44:24;;;;;;;57.90;3.23;;;;;;;;;;5050750;28;20945;-67
2023/06/05 07:46:52;;;;;;;56.97;2.27;;;;;;;;;;5051088;28;20455;-67
2023/06/05 07:49:19;;;;;;;56.87;2.40;;;;;;;;;;5050422;28;20848;-67
2023/06/05 07:51:48;;;;;;;56.97;2.50;;;;;;;;;;5050392;28;20642;-67
2023/06/05 07:54:16;;;;;;;57.13;2.50;;;;;;;;;;5051029;28;20459;-67
2023/06/05 07:56:44;;;;;;;57.37;2.70;;;;;;;;;;5050669;28;20487;-67
2023/06/05 07:59:14;;;;;;;58.20;2.90;;;;;;;;;;5050231;28;20832;-67
2023/06/05 08:01:41;;;;;;;57.23;2.43;;;;;;;;;;5054650;28;21008;-67
2023/06/05 08:04:10;;;;;;;57.97;2.67;;;;;;;;;;5054824;28;20452;-67
2023/06/05 08:06:39;;;;;;;57.20;2.53;;;;;;;;;;5054500;28;20801;-67
2023/06/05 08:09:09;;;;;;;57.13;2.30;;;;;;;;;;5054402;28;20458;-67
2023/06/05 08:11:36;;;;;;;57.53;2.60;;;;;;;;;;5054459;28;20613;-67
2023/06/05 08:14:05;;;;;;;57.00;2.43;;;;;;;;;;5054667;28;20864;-67
2023/06/05 08:16:34;;;;;;;57.40;2.73;;;;;;;;;;5054337;28;20483;-67
2023/06/05 08:19:01;;;;;;;57.80;2.50;;;;;;;;;;5053584;28;20470;-67
2023/06/05 08:21:28;;;;;;;56.77;2.00;;;;;;;;;;5054377;28;20448;-67
2023/06/05 08:23:55;;;;;;;57.63;3.03;;;;;;;;;;5054468;28;20455;-67
2023/06/05 08:26:22;;;;;;;57.47;2.37;;;;;;;;;;5054390;28;20444;-67
2023/06/05 08:28:50;;;;;;;57.00;2.53;;;;;;;;;;5053813;28;20900;-67
2023/06/05 08:31:18;;;;;;;57.40;2.30;;;;;;;;;;5054245;28;20448;-67
2023/06/05 08:33:46;;;;;;;56.43;2.00;;;;;;;;;;5053888;28;20464;-67
2023/06/05 08:36:13;;;;;;;57.97;3.47;;;;;;;;;;5054197;28;20483;-67
2023/06/05 08:38:40;;;;;;;57.30;2.33;;;;;;;;;;5053593;28;20444;-67
2023/06/05 08:41:10;;;;;;;58.53;4.30;;;;;;;;;;5053915;28;20941;-68
2023/06/05 08:43:37;;;;;;;57.87;2.50;;;;;;;;;;5053931;28;20832;-68
2023/06/05 08:46:05;;;;;;;57.60;2.63;;;;;;;;;;5053966;28;20501;-68
2023/06/05 08:48:35;;;;;;;56.87;2.30;;;;;;;;;;5053349;28;20455;-67
2023/06/05 08:51:03;;;;;;;56.90;2.50;;;;;;;;;;5054081;28;20452;-65
2023/06/05 08:53:34;;;;;;;57.50;2.43;;;;;;;;;;5053701;28;20476;-65
2023/06/05 08:56:01;;;;;;;56.77;2.80;;;;;;;;;;5053584;28;20480;-66
2023/06/05 08:58:29;;;;;;;57.73;3.27;;;;;;;;;;5053387;28;20448;-65
2023/06/05 09:00:57;;;;;;;57.20;2.40;;;;;;;;;;5053371;28;20747;-66
2023/06/05 09:03:25;;;;;;;56.63;2.47;;;;;;;;;;5053370;28;20461;-66
2023/06/05 09:05:53;;;;;;;57.40;2.40;;;;;;;;;;5053488;28;20452;-65
2023/06/05 09:08:30;;;;;;;57.17;2.40;;;;;;;;;;5053579;28;20448;-66
2023/06/05 09:11:18;;;;;;;57.40;3.00;;;;;;;;;;5052321;28;20820;-66
2023/06/05 09:13:46;;;;;;;57.23;2.30;;;;;;;;;;5053473;28;20472;-66
2023/06/05 09:16:13;;;;;;;57.10;2.20;;;;;;;;;;5053235;28;20537;-66
2023/06/05 09:18:53;;;;;;;57.10;2.40;;;;;;;;;;5052760;28;20459;-66
2023/06/05 09:21:20;;;;;;;56.93;2.07;;;;;;;;;;5053726;28;20482;-66
2023/06/05 09:23:48;;;;;;;57.17;2.33;;;;;;;;;;5053503;28;20987;-65
2023/06/05 09:26:16;;;;;;;57.70;3.27;;;;;;;;;;5053229;28;20440;-66
2023/06/05 09:28:54;;;;;;;56.77;2.93;;;;;;;;;;5052566;28;20456;-66
2023/06/05 09:31:23;;;;;;;57.67;2.90;;;;;;;;;;5053448;28;20432;-66
2023/06/05 09:33:57;;;;;;;56.90;2.53;;;;;;;;;;5052982;28;20530;-66
2023/06/05 09:36:27;;;;;;;56.87;2.60;;;;;;;;;;5052721;28;21026;-66
2023/06/05 09:38:55;;;;;;;57.77;2.90;;;;;;;;;;5052331;28;20463;-65
2023/06/05 09:41:23;;;;;;;56.97;2.30;;;;;;;;;;5053234;28;20452;-66
2023/06/05 09:43:50;;;;;;;57.80;2.70;;;;;;;;;;5052834;28;20835;-66
2023/06/05 09:46:18;;;;;;;57.20;2.20;;;;;;;;;;5052860;28;20445;-68
2023/06/05 09:48:54;;;;;;;56.70;2.10;;;;;;;;;;5051947;28;20455;-67
2023/06/05 09:51:21;;;;;;;56.57;2.40;;;;;;;;;;5052788;28;20452;-68
2023/06/05 09:53:49;;;;;;;57.50;2.20;;;;;;;;;;5052874;28;20535;-68
2023/06/05 09:56:18;;;;;;;56.90;2.40;;;;;;;;;;5052751;28;20488;-68
2023/06/05 09:58:46;;;;;;;57.87;2.63;;;;;;;;;;5051822;28;20453;-68
2023/06/05 10:01:16;;;;;;;56.93;2.30;;;;;;;;;;5052234;28;21011;-68
2023/06/05 10:03:45;;;;;;;57.10;2.30;;;;;;;;;;5052711;28;20476;-68
2023/06/05 10:06:13;;;;;;;56.80;2.00;;;;;;;;;;5052548;28;20570;-68
2023/06/05 10:08:40;;;;;;;56.80;2.17;;;;;;;;;;5051548;28;20452;-68
2023/06/05 10:11:07;;;;;;;56.97;2.30;;;;;;;;;;5052404;28;20451;-68
2023/06/05 10:13:36;;;;;;;57.07;1.90;;;;;;;;;;5052040;28;20468;-68
2023/06/05 10:16:04;;;;;;;56.67;2.00;;;;;;;;;;5052195;28;20509;-66
2023/06/05 10:18:32;;;;;;;56.70;2.40;;;;;;;;;;5052151;28;20444;-66
2023/06/05 10:20:59;;;;;;;57.00;2.43;;;;;;;;;;5052379;28;20456;-66
2023/06/05 10:23:27;;;;;;;56.90;2.40;;;;;;;;;;5051766;28;20477;-66
2023/06/05 10:25:55;;;;;;;56.73;2.20;;;;;;;;;;5051896;28;20835;-66
2023/06/05 10:28:37;;;;;;;56.67;2.10;;;;;;;;;;5052493;28;20444;-66
2023/06/05 10:31:26;;;;;;;56.90;2.67;;;;;;;;;;5052046;28;20478;-66
2023/06/05 10:33:58;;;;;;;56.40;1.80;;;;;;;;;;5051899;28;20488;-67
2023/06/05 10:36:39;;;;;;;56.37;1.70;;;;;;;;;;5051643;28;20512;-67
2023/06/05 10:39:07;;;;;;;56.60;2.33;;;;;;;;;;5051347;28;20438;-67
2023/06/05 10:41:34;;;;;;;56.10;1.90;;;;;;;;;;5051809;28;20510;-67
2023/06/05 10:44:01;;;;;;;55.97;1.80;;;;;;;;;;5051741;28;20444;-67
2023/06/05 10:46:37;;;;;;;56.10;2.07;;;;;;;;;;5051544;28;20457;-67
2023/06/05 10:49:08;;;;;;;55.87;1.70;;;;;;;;;;5050662;28;20463;-67
2023/06/05 10:51:39;;;;;;;56.47;1.97;;;;;;;;;;5051636;28;20452;-67
2023/06/05 10:54:06;;;;;;;56.07;1.80;;;;;;;;;;5051819;28;20490;-67
2023/06/05 10:56:52;;;;;;;56.37;2.30;;;;;;;;;;5051222;28;20866;-67
2023/06/05 10:59:20;;;;;;;55.97;1.83;;;;;;;;;;5050645;28;20447;-67
2023/06/05 11:02:19;;;;;;;55.70;1.70;;;;;;;;;;5051587;28;20720;-67
2023/06/05 11:05:04;;;;;;;56.17;2.50;;;;;;;;;;5051042;28;20452;-67
2023/06/05 11:07:31;;;;;;;55.53;1.70;;;;;;;;;;5049957;28;20456;-67
2023/06/05 11:10:08;;;;;;;55.87;2.47;;;;;;;;;;5050379;28;20444;-67
2023/06/05 11:12:57;;;;;;;55.57;1.80;;;;;;;;;;5051258;28;20470;-67
2023/06/05 11:15:38;;;;;;;56.00;2.07;;;;;;;;;;5051353;28;20454;-67
2023/06/05 11:18:29;;;;;;;56.30;1.90;;;;;;;;;;5051308;28;20472;-67
2023/06/05 11:20:58;;;;;;;56.10;2.30;;;;;;;;;;5035449;28;20482;-67
2023/06/05 11:23:27;;;;;;;55.53;1.80;;;;;;;;;;5051172;28;20551;-68
2023/06/05 11:25:57;;;;;;;55.73;1.93;;;;;;;;;;5051026;28;20478;-68
2023/06/05 11:28:41;;;;;;;55.57;2.03;;;;;;;;;;5050929;28;20440;-68
2023/06/05 11:31:08;;;;;;;55.40;1.90;;;;;;;;;;5050970;28;20440;-68
2023/06/05 11:33:35;;;;;;;55.47;2.00;;;;;;;;;;5050938;28;20535;-68
2023/06/05 11:36:05;;;;;;;55.00;1.70;;;;;;;;;;5050440;28;20452;-68
2023/06/05 11:38:32;;;;;;;57.20;3.90;;;;;;;;;;5050945;28;20487;-68
2023/06/05 11:40:59;;;;;;;55.40;2.33;;;;;;;;;;5051097;28;20583;-68
2023/06/05 11:43:27;;;;;;;55.43;1.93;;;;;;;;;;5051109;28;20479;-68
2023/06/05 11:45:54;;;;;;;55.80;2.30;;;;;;;;;;5051001;28;20795;-68
2023/06/05 11:48:21;;;;;;;55.30;1.90;;;;;;;;;;5051037;28;20530;-68
2023/06/05 11:50:55;;;;;;;55.07;1.90;;;;;;;;;;5050217;28;20448;-68
2023/06/05 11:53:24;;;;;;;55.70;2.80;;;;;;;;;;5050623;28;20468;-67
2023/06/05 11:56:05;;;;;;;56.40;2.40;;;;;;;;;;5050598;28;20460;-68
2023/06/05 11:58:34;;;;;;;56.13;2.60;;;;;;;;;;5050576;28;20432;-68
2023/06/05 12:01:05;;;;;;;55.17;1.80;;;;;;;;;;5050838;28;20517;-68
2023/06/05 12:03:33;;;;;;;55.17;1.83;;;;;;;;;;5050650;28;20817;-68
2023/06/05 12:06:03;;;;;;;55.30;1.80;;;;;;;;;;5050978;28;20578;-68
2023/06/05 12:08:32;;;;;;;55.60;2.20;;;;;;;;;;5050836;28;20533;-67
2023/06/05 12:11:00;;;;;;;56.60;2.63;;;;;;;;;;5050829;28;20456;-68
2023/06/05 12:13:42;;;;;;;55.03;1.87;;;;;;;;;;5050643;28;20841;-68
2023/06/05 12:16:09;;;;;;;56.07;2.10;;;;;;;;;;5050349;28;20531;-68
2023/06/05 12:18:36;;;;;;;55.27;1.90;;;;;;;;;;5050024;28;20447;-68
2023/06/05 12:21:06;;;;;;;55.07;1.87;;;;;;;;;;5050491;28;20448;-68
2023/06/05 12:23:34;;;;;;;55.20;2.00;;;;;;;;;;5050708;28;20464;-68
2023/06/05 12:26:02;;;;;;;55.40;1.90;;;;;;;;;;5050682;28;20448;-68
2023/06/05 12:28:29;;;;;;;55.10;1.90;;;;;;;;;;5049971;28;20472;-68
2023/06/05 12:30:57;;;;;;;55.30;1.90;;;;;;;;;;5050329;28;20450;-68
2023/06/05 12:33:24;;;;;;;54.87;1.90;;;;;;;;;;5050200;28;20509;-68
2023/06/05 12:36:03;;;;;;;55.07;1.83;;;;;;;;;;5050227;28;21022;-68
2023/06/05 12:38:31;;;;;;;55.00;2.13;;;;;;;;;;5050114;28;20451;-68
2023/06/05 12:41:00;;;;;;;54.97;1.80;;;;;;;;;;5049914;28;20945;-68
2023/06/05 12:43:27;;;;;;;55.63;2.10;;;;;;;;;;5050288;28;20472;-68
2023/06/05 12:45:54;;;;;;;55.30;2.00;;;;;;;;;;5051283;28;20458;-68
2023/06/05 12:48:23;;;;;;;55.20;2.00;;;;;;;;;;5053902;28;20514;-68
2023/06/05 12:50:50;;;;;;;55.07;2.00;;;;;;;;;;5053109;28;20479;-68
2023/06/05 12:53:17;;;;;;;54.67;2.00;;;;;;;;;;5053876;28;20468;-68
2023/06/05 12:55:45;;;;;;;55.03;2.00;;;;;;;;;;5053685;28;20513;-68
2023/06/05 12:58:13;;;;;;;55.73;2.10;;;;;;;;;;5053457;28;20435;-67
2023/06/05 13:00:41;;;;;;;55.70;2.00;;;;;;;;;;5053292;28;20444;-68
2023/06/05 13:03:09;;;;;;;56.90;2.47;;;;;;;;;;5053616;28;20530;-67
2023/06/05 13:05:36;;;;;;;56.30;2.27;;;;;;;;;;5053644;28;20864;-68
2023/06/05 13:08:03;;;;;;;56.00;2.10;;;;;;;;;;5053488;28;20480;-68
2023/06/05 13:10:30;;;;;;;55.80;2.27;;;;;;;;;;5052828;28;20494;-68
2023/06/05 13:12:57;;;;;;;55.60;1.90;;;;;;;;;;5053122;28;20494;-68
2023/06/05 13:15:26;;;;;;;56.73;2.33;;;;;;;;;;5053479;28;20450;-68
2023/06/05 13:17:53;;;;;;;56.37;2.53;;;;;;;;;;5053829;28;20816;-67
2023/06/05 13:20:20;;;;;;;55.70;2.30;;;;;;;;;;5052662;28;20445;-68
2023/06/05 13:22:47;;;;;;;56.07;2.00;;;;;;;;;;5053184;28;20479;-68
2023/06/05 13:25:14;;;;;;;56.00;3.10;;;;;;;;;;5053161;28;20447;-68
2023/06/05 13:27:41;;;;;;;55.50;2.10;;;;;;;;;;5053577;28;20843;-68
2023/06/05 13:30:09;;;;;;;55.40;2.20;;;;;;;;;;5052610;28;20444;-68
2023/06/05 13:32:38;;;;;;;55.50;2.20;;;;;;;;;;5053255;28;20472;-68
2023/06/05 13:35:06;;;;;;;55.27;1.87;;;;;;;;;;5053265;28;20452;-68
2023/06/05 13:37:33;;;;;;;55.10;2.10;;;;;;;;;;5053388;28;20445;-68
2023/06/05 13:40:00;;;;;;;55.37;2.20;;;;;;;;;;5052278;28;20444;-68
2023/06/05 13:42:27;;;;;;;55.63;2.57;;;;;;;;;;5052908;28;20472;-68
2023/06/05 13:44:55;;;;;;;55.20;2.03;;;;;;;;;;5052830;28;20449;-68
2023/06/05 13:47:22;;;;;;;55.40;2.20;;;;;;;;;;5052732;28;20857;-68
2023/06/05 13:49:53;;;;;;;56.40;2.30;;;;;;;;;;5052363;28;20543;-68
2023/06/05 13:52:20;;;;;;;56.07;2.30;;;;;;;;;;5052548;28;20475;-68
2023/06/05 13:54:47;;;;;;;56.10;2.33;;;;;;;;;;5052793;28;20534;-67
2023/06/05 13:57:16;;;;;;;55.90;2.33;;;;;;;;;;5051722;28;20463;-68
2023/06/05 13:59:43;;;;;;;55.97;2.20;;;;;;;;;;5052323;28;20456;-67
2023/06/05 14:02:11;;;;;;;55.63;1.90;;;;;;;;;;5052649;28;20471;-67
2023/06/05 14:04:39;;;;;;;56.87;2.13;;;;;;;;;;5052524;28;20444;-68
2023/06/05 14:07:07;;;;;;;56.57;2.47;;;;;;;;;;5052434;28;20455;-68
2023/06/05 14:09:34;;;;;;;56.30;2.33;;;;;;;;;;5051706;28;20967;-67
2023/06/05 14:12:04;;;;;;;56.27;2.53;;;;;;;;;;5052526;28;20885;-67
2023/06/05 14:14:31;;;;;;;55.43;1.80;;;;;;;;;;5052531;28;20453;-68
2023/06/05 14:16:58;;;;;;;55.50;1.90;;;;;;;;;;5052096;28;20448;-67
2023/06/05 14:19:26;;;;;;;55.73;2.03;;;;;;;;;;5051716;28;20448;-68
2023/06/05 14:21:53;;;;;;;55.60;2.20;;;;;;;;;;5052180;28;20472;-68
2023/06/05 14:24:21;;;;;;;55.70;2.10;;;;;;;;;;5052454;28;20456;-67
2023/06/05 14:26:49;;;;;;;56.60;1.87;;;;;;;;;;5052164;28;20539;-68
2023/06/05 14:29:16;;;;;;;56.00;1.90;;;;;;;;;;5051462;28;20610;-68
2023/06/05 14:31:43;;;;;;;55.80;2.60;;;;;;;;;;5052298;28;20459;-68
2023/06/05 14:34:10;;;;;;;55.10;1.87;;;;;;;;;;5051636;28;20983;-68
2023/06/05 14:36:37;;;;;;;55.93;2.23;;;;;;;;;;5052003;28;20448;-68
2023/06/05 14:39:04;;;;;;;56.17;2.60;;;;;;;;;;5051357;28;20440;-68
2023/06/05 14:41:33;;;;;;;54.40;2.00;;;;;;;;;;5051873;28;20452;-68